createdAt,value
2018-08-19T00:00:51.796Z,4.63
2018-08-19T00:03:20.914Z,4.90
2018-08-19T00:05:50.097Z,5.10
2018-08-19T00:08:19.161Z,4.47
2018-08-19T00:11:04.886Z,4.53
2018-08-19T00:13:40.601Z,4.77
2018-08-19T00:16:10.603Z,5.10
2018-08-19T00:18:39.663Z,4.50
2018-08-19T00:21:11.167Z,4.87
2018-08-19T00:23:45.394Z,4.93
2018-08-19T00:26:15.274Z,4.37
2018-08-19T00:28:44.310Z,5.20
2018-08-19T00:31:13.466Z,4.43
2018-08-19T00:33:42.592Z,4.60
2018-08-19T00:36:24.934Z,4.10
2018-08-19T00:38:54.277Z,4.53
2018-08-19T00:41:23.316Z,4.23
2018-08-19T00:43:52.269Z,4.30
2018-08-19T00:46:23.416Z,4.50
2018-08-19T00:48:52.315Z,4.10
2018-08-19T00:51:21.359Z,4.57
2018-08-19T00:53:50.205Z,4.00
2018-08-19T00:56:19.417Z,4.30
2018-08-19T00:58:48.430Z,4.53
2018-08-19T01:01:29.562Z,4.23
2018-08-19T01:03:59.088Z,4.13
2018-08-19T01:06:28.464Z,4.83
2018-08-19T01:08:57.340Z,4.40
2018-08-19T01:11:32.452Z,4.40
2018-08-19T01:14:01.376Z,4.47
2018-08-19T01:16:30.226Z,4.17
2018-08-19T01:19:01.318Z,4.50
2018-08-19T01:21:31.775Z,4.80
2018-08-19T01:24:01.827Z,4.73
2018-08-19T01:26:34.564Z,4.40
2018-08-19T01:29:03.918Z,4.47
2018-08-19T01:31:32.889Z,5.07
2018-08-19T01:34:02.053Z,4.70
2018-08-19T01:36:31.090Z,4.27
2018-08-19T01:39:00.136Z,4.27
2018-08-19T01:41:28.961Z,4.07
2018-08-19T01:44:07.792Z,4.37
2018-08-19T01:46:53.035Z,4.30
2018-08-19T01:49:21.816Z,4.83
2018-08-19T01:51:50.666Z,5.07
2018-08-19T01:54:21.981Z,5.50
2018-08-19T01:57:00.652Z,5.57
2018-08-19T01:59:31.842Z,5.10
2018-08-19T02:02:02.677Z,4.83
2018-08-19T02:04:32.784Z,5.13
2018-08-19T02:07:01.917Z,5.83
2018-08-19T02:09:30.796Z,5.00
2018-08-19T02:12:00.589Z,5.60
2018-08-19T02:14:29.448Z,4.67
2018-08-19T02:16:58.355Z,5.10
2018-08-19T02:19:27.427Z,4.90
2018-08-19T02:21:56.245Z,5.57
2018-08-19T02:24:25.097Z,5.77
2018-08-19T02:26:54.122Z,5.10
2018-08-19T02:29:35.744Z,5.37
2018-08-19T02:32:06.426Z,4.80
2018-08-19T02:34:37.318Z,4.80
2018-08-19T02:37:12.197Z,5.17
2018-08-19T02:39:42.779Z,6.03
2018-08-19T02:42:18.767Z,4.60
2018-08-19T02:44:47.715Z,5.60
2018-08-19T02:47:16.586Z,5.13
2018-08-19T02:49:45.373Z,5.40
2018-08-19T02:52:18.396Z,5.03
2018-08-19T02:54:47.193Z,5.30
2018-08-19T02:57:16.204Z,5.60
2018-08-19T02:59:45.069Z,5.60
2018-08-19T03:02:31.354Z,5.37
2018-08-19T03:05:01.517Z,5.57
2018-08-19T03:07:30.979Z,6.00
2018-08-19T03:10:04.977Z,5.57
2018-08-19T03:12:33.965Z,5.53
2018-08-19T03:15:02.852Z,5.93
2018-08-19T03:17:32.449Z,5.87
2018-08-19T03:20:01.627Z,5.37
2018-08-19T03:22:31.049Z,5.90
2018-08-19T03:25:00.187Z,5.57
2018-08-19T03:27:29.082Z,5.47
2018-08-19T03:29:59.287Z,5.50
2018-08-19T03:32:28.108Z,5.90
2018-08-19T03:35:07.790Z,6.53
2018-08-19T03:37:37.650Z,6.47
2018-08-19T03:40:06.880Z,6.30
2018-08-19T03:42:35.694Z,5.80
2018-08-19T03:45:22.280Z,6.83
2018-08-19T03:47:52.288Z,6.37
2018-08-19T03:50:22.133Z,6.60
2018-08-19T03:52:52.005Z,5.73
2018-08-19T03:55:28.402Z,6.17
2018-08-19T03:58:00.954Z,6.97
2018-08-19T04:00:35.302Z,6.23
2018-08-19T04:03:13.407Z,7.37
2018-08-19T04:05:53.835Z,5.90
2018-08-19T04:08:26.419Z,6.33
2018-08-19T04:10:55.297Z,6.37
2018-08-19T04:13:33.017Z,6.77
2018-08-19T04:16:02.921Z,6.70
2018-08-19T04:18:39.398Z,6.93
2018-08-19T04:21:10.337Z,6.43
2018-08-19T04:23:41.735Z,6.80
2018-08-19T04:26:10.642Z,6.93
2018-08-19T04:28:40.853Z,6.80
2018-08-19T04:31:15.223Z,6.47
2018-08-19T04:33:45.932Z,6.53
2018-08-19T04:36:16.460Z,6.93
2018-08-19T04:38:45.267Z,6.63
2018-08-19T04:41:14.542Z,6.63
2018-08-19T04:43:43.775Z,6.43
2018-08-19T04:46:12.603Z,6.53
2018-08-19T04:48:41.444Z,7.13
2018-08-19T04:51:10.245Z,6.83
2018-08-19T04:53:39.228Z,7.30
2018-08-19T04:56:08.016Z,6.43
2018-08-19T04:58:36.794Z,7.37
2018-08-19T05:01:05.944Z,7.27
2018-08-19T05:03:34.789Z,6.13
2018-08-19T05:06:03.795Z,6.63
2018-08-19T05:08:33.639Z,6.57
2018-08-19T05:11:02.315Z,6.90
2018-08-19T05:13:31.130Z,6.80
2018-08-19T05:15:59.873Z,6.37
2018-08-19T05:18:28.625Z,6.83
2018-08-19T05:21:03.379Z,6.37
2018-08-19T05:23:32.202Z,6.50
2018-08-19T05:26:00.993Z,6.40
2018-08-19T05:28:29.935Z,7.37
2018-08-19T05:30:58.806Z,6.67
2018-08-19T05:33:27.681Z,7.40
2018-08-19T05:35:56.493Z,6.73
2018-08-19T05:38:25.331Z,6.30
2018-08-19T05:40:59.664Z,7.63
2018-08-19T05:43:29.187Z,7.10
2018-08-19T05:45:59.872Z,6.97
2018-08-19T05:48:28.823Z,7.23
2018-08-19T05:50:58.036Z,7.70
2018-08-19T05:53:27.066Z,6.50
2018-08-19T05:55:55.796Z,6.57
2018-08-19T05:58:24.566Z,6.80
2018-08-19T06:00:55.104Z,6.97
2018-08-19T06:03:23.909Z,6.73
2018-08-19T06:05:53.064Z,6.57
2018-08-19T06:08:21.991Z,6.43
2018-08-19T06:10:50.817Z,6.33
2018-08-19T06:13:19.643Z,6.90
2018-08-19T06:15:48.540Z,6.77
2018-08-19T06:18:17.545Z,6.73
2018-08-19T06:20:46.455Z,6.60
2018-08-19T06:23:15.326Z,6.30
2018-08-19T06:25:44.468Z,6.23
2018-08-19T06:28:13.554Z,6.27
2018-08-19T06:30:42.462Z,6.23
2018-08-19T06:33:11.184Z,6.27
2018-08-19T06:35:40.025Z,6.40
2018-08-19T06:38:09.705Z,5.93
2018-08-19T06:40:39.024Z,6.10
2018-08-19T06:43:08.009Z,6.90
2018-08-19T06:45:37.527Z,6.67
2018-08-19T06:48:06.403Z,6.17
2018-08-19T06:50:35.734Z,6.43
2018-08-19T06:53:04.451Z,6.00
2018-08-19T06:55:33.329Z,6.00
2018-08-19T06:58:02.106Z,6.47
2018-08-19T07:00:32.056Z,6.80
2018-08-19T07:03:05.528Z,6.10
2018-08-19T07:05:34.978Z,7.13
2018-08-19T07:08:03.838Z,5.70
2018-08-19T07:10:40.607Z,6.07
2018-08-19T07:13:14.524Z,6.17
2018-08-19T07:15:44.550Z,6.60
2018-08-19T07:18:14.813Z,6.37
2018-08-19T07:20:44.513Z,6.40
2018-08-19T07:23:13.819Z,6.33
2018-08-19T07:25:44.089Z,6.00
2018-08-19T07:28:14.274Z,6.20
2018-08-19T07:30:43.596Z,6.07
2018-08-19T07:33:13.027Z,6.70
2018-08-19T07:35:41.954Z,6.27
2018-08-19T07:38:10.915Z,6.10
2018-08-19T07:40:39.767Z,5.80
2018-08-19T07:43:08.762Z,6.17
2018-08-19T07:45:38.403Z,6.70
2018-08-19T07:48:07.341Z,6.20
2018-08-19T07:50:36.188Z,6.50
2018-08-19T07:53:05.315Z,5.67
2018-08-19T07:55:34.113Z,5.93
2018-08-19T07:58:03.032Z,6.67
2018-08-19T08:00:37.209Z,6.83
2018-08-19T08:03:06.139Z,5.83
2018-08-19T08:05:40.194Z,6.53
2018-08-19T08:08:09.472Z,6.23
2018-08-19T08:10:39.268Z,6.13
2018-08-19T08:13:10.231Z,5.47
2018-08-19T08:15:44.449Z,5.83
2018-08-19T08:18:13.865Z,6.37
2018-08-19T08:20:42.795Z,6.60
2018-08-19T08:23:24.958Z,5.83
2018-08-19T08:25:54.017Z,6.07
2018-08-19T08:28:22.904Z,6.43
2018-08-19T08:30:51.807Z,5.80
2018-08-19T08:33:21.013Z,6.70
2018-08-19T08:35:56.996Z,6.80
2018-08-19T08:38:26.194Z,6.37
2018-08-19T08:40:55.337Z,5.80
2018-08-19T08:43:24.194Z,6.17
2018-08-19T08:45:55.926Z,5.40
2018-08-19T08:48:24.782Z,5.70
2018-08-19T08:50:53.633Z,5.90
2018-08-19T08:53:25.378Z,6.43
2018-08-19T08:55:54.393Z,7.33
2018-08-19T08:58:23.384Z,6.77
2018-08-19T09:00:52.404Z,6.63
2018-08-19T09:03:21.482Z,6.17
2018-08-19T09:05:50.327Z,6.47
2018-08-19T09:08:19.099Z,6.70
2018-08-19T09:10:48.347Z,7.27
2018-08-19T09:13:17.302Z,6.90
2018-08-19T09:15:46.514Z,6.37
2018-08-19T09:18:15.396Z,5.80
2018-08-19T09:20:44.379Z,6.40
2018-08-19T09:23:13.298Z,6.13
2018-08-19T09:25:42.114Z,6.47
2018-08-19T09:28:11.016Z,6.17
2018-08-19T09:30:42.763Z,5.83
2018-08-19T09:33:12.494Z,5.67
2018-08-19T09:35:42.568Z,6.20
2018-08-19T09:38:15.067Z,6.47
2018-08-19T09:40:44.484Z,6.67
2018-08-19T09:43:13.453Z,6.13
2018-08-19T09:45:42.776Z,6.60
2018-08-19T09:48:13.525Z,6.17
2018-08-19T09:50:43.126Z,5.83
2018-08-19T09:53:12.013Z,6.40
2018-08-19T09:55:42.383Z,6.60
2018-08-19T09:58:16.227Z,6.47
2018-08-19T10:00:50.395Z,6.20
2018-08-19T10:03:19.551Z,6.20
2018-08-19T10:05:48.385Z,6.55
2018-08-19T10:08:17.375Z,6.60
2018-08-19T10:10:46.225Z,6.10
2018-08-19T10:13:16.207Z,6.55
2018-08-19T10:15:45.147Z,6.60
2018-08-19T10:18:14.034Z,6.35
2018-08-19T10:20:42.915Z,6.75
2018-08-19T10:23:11.867Z,6.83
2018-08-19T10:25:40.651Z,6.53
2018-08-19T10:28:09.581Z,6.10
2018-08-19T10:30:46.179Z,6.58
2018-08-19T10:33:15.069Z,6.45
2018-08-19T10:35:43.915Z,6.35
2018-08-19T10:38:15.592Z,5.80
2018-08-19T10:40:52.007Z,5.75
2018-08-19T10:43:21.072Z,6.75
2018-08-19T10:45:49.905Z,6.30
2018-08-19T10:48:18.785Z,6.47
2018-08-19T10:50:47.639Z,6.40
2018-08-19T10:53:21.774Z,6.53
2018-08-19T10:55:50.694Z,6.17
2018-08-19T10:58:19.620Z,6.85
2018-08-19T11:00:50.805Z,7.05
2018-08-19T11:03:20.624Z,6.62
2018-08-19T11:05:51.201Z,6.00
2018-08-19T11:08:20.086Z,6.42
2018-08-19T11:10:48.965Z,6.35
2018-08-19T11:13:22.072Z,5.90
2018-08-19T11:15:53.450Z,6.40
2018-08-19T11:18:30.374Z,6.10
2018-08-19T11:21:20.783Z,7.08
2018-08-19T11:23:49.905Z,6.30
2018-08-19T11:26:18.922Z,6.67
2018-08-19T11:28:49.171Z,6.72
2018-08-19T11:31:25.217Z,6.35
2018-08-19T11:33:55.769Z,6.55
2018-08-19T11:36:32.466Z,6.67
2018-08-19T11:39:01.481Z,6.15
2018-08-19T11:41:33.528Z,6.37
2018-08-19T11:44:06.613Z,6.50
2018-08-19T11:46:35.453Z,6.65
2018-08-19T11:49:17.348Z,6.95
2018-08-19T11:52:00.620Z,6.65
2018-08-19T11:54:30.332Z,6.70
2018-08-19T11:57:06.710Z,7.92
2018-08-19T11:59:51.147Z,7.37
2018-08-19T12:02:23.523Z,7.22
2018-08-19T12:04:53.251Z,6.50
2018-08-19T12:07:22.356Z,6.53
2018-08-19T12:09:56.733Z,7.67
2018-08-19T12:12:41.928Z,6.53
2018-08-19T12:15:10.845Z,6.87
2018-08-19T12:17:39.743Z,6.78
2018-08-19T12:20:08.594Z,7.20
2018-08-19T12:22:37.626Z,7.03
2018-08-19T12:25:06.568Z,6.33
2018-08-19T12:27:35.559Z,7.17
2018-08-19T12:30:11.667Z,7.22
2018-08-19T12:32:40.491Z,7.20
2018-08-19T12:35:09.278Z,7.15
2018-08-19T12:37:38.174Z,7.78
2018-08-19T12:40:07.693Z,7.90
2018-08-19T12:42:44.668Z,7.00
2018-08-19T12:45:13.746Z,7.17
2018-08-19T12:47:43.007Z,7.70
2018-08-19T12:50:13.554Z,7.55
2018-08-19T12:52:42.506Z,7.78
2018-08-19T12:55:14.330Z,7.30
2018-08-19T12:57:43.838Z,7.83
2018-08-19T13:00:19.803Z,7.33
2018-08-19T13:02:50.311Z,7.72
2018-08-19T13:05:19.728Z,8.05
2018-08-19T13:07:48.609Z,7.75
2018-08-19T13:10:18.018Z,7.33
2018-08-19T13:12:56.633Z,7.53
2018-08-19T13:15:27.375Z,7.92
2018-08-19T13:17:56.207Z,8.73
2018-08-19T13:20:25.058Z,8.25
2018-08-19T13:22:59.705Z,7.70
2018-08-19T13:25:28.955Z,8.40
2018-08-19T13:27:57.794Z,7.22
2018-08-19T13:30:26.686Z,7.95
2018-08-19T13:32:55.587Z,7.92
2018-08-19T13:35:24.517Z,8.30
2018-08-19T13:37:53.337Z,8.50
2018-08-19T13:40:22.338Z,8.90
2018-08-19T13:42:51.694Z,9.48
2018-08-19T13:45:22.101Z,9.63
2018-08-19T13:47:53.402Z,8.25
2018-08-19T13:50:22.653Z,9.05
2018-08-19T13:52:51.693Z,8.60
2018-08-19T13:55:21.757Z,8.48
2018-08-19T13:57:50.933Z,9.40
2018-08-19T14:00:21.935Z,9.30
2018-08-19T14:02:51.473Z,8.50
2018-08-19T14:05:20.325Z,8.48
2018-08-19T14:07:50.104Z,8.30
2018-08-19T14:10:18.946Z,8.90
2018-08-19T14:12:47.821Z,9.05
2018-08-19T14:15:16.742Z,9.03
2018-08-19T14:17:45.711Z,9.15
2018-08-19T14:20:15.156Z,8.45
2018-08-19T14:22:44.279Z,8.65
2018-08-19T14:25:13.431Z,8.48
2018-08-19T14:27:42.872Z,8.30
2018-08-19T14:30:12.773Z,8.08
2018-08-19T14:32:44.506Z,8.05
2018-08-19T14:35:13.744Z,7.78
2018-08-19T14:37:43.237Z,8.48
2018-08-19T14:40:14.385Z,8.45
2018-08-19T14:42:43.382Z,8.55
2018-08-19T14:45:12.788Z,8.38
2018-08-19T14:47:41.625Z,8.65
2018-08-19T14:50:18.551Z,8.80
2018-08-19T14:52:47.371Z,7.97
2018-08-19T14:55:16.245Z,7.85
2018-08-19T14:57:45.050Z,7.75
2018-08-19T15:00:15.682Z,7.40
2018-08-19T15:02:44.868Z,7.62
2018-08-19T15:05:18.503Z,7.60
2018-08-19T15:07:47.533Z,7.78
2018-08-19T15:10:19.046Z,7.85
2018-08-19T15:12:48.215Z,7.47
2018-08-19T15:15:17.191Z,7.80
2018-08-19T15:17:51.243Z,7.65
2018-08-19T15:20:24.909Z,7.65
2018-08-19T15:23:02.000Z,7.62
2018-08-19T15:25:30.963Z,7.80
2018-08-19T15:27:59.879Z,7.92
2018-08-19T15:30:28.930Z,7.40
2018-08-19T15:32:58.204Z,7.65
2018-08-19T15:35:26.788Z,7.78
2018-08-19T15:37:55.551Z,7.85
2018-08-19T15:40:34.339Z,7.75
2018-08-19T15:43:03.204Z,7.37
2018-08-19T15:45:32.053Z,7.40
2018-08-19T15:48:01.056Z,7.40
2018-08-19T15:50:29.914Z,7.55
2018-08-19T15:52:59.748Z,7.85
2018-08-19T15:55:28.653Z,8.25
2018-08-19T15:58:00.530Z,8.08
2018-08-19T16:00:30.228Z,7.67
2018-08-19T16:02:59.191Z,7.37
2018-08-19T16:05:28.047Z,8.10
2018-08-19T16:07:56.832Z,7.30
2018-08-19T16:10:25.653Z,8.28
2018-08-19T16:12:54.484Z,7.95
2018-08-19T16:15:26.946Z,7.12
2018-08-19T16:17:57.097Z,7.70
2018-08-19T16:20:26.117Z,8.40
2018-08-19T16:22:54.886Z,7.60
2018-08-19T16:25:23.688Z,7.75
2018-08-19T16:27:52.688Z,8.70
2018-08-19T16:30:21.478Z,7.70
2018-08-19T16:32:50.459Z,7.15
2018-08-19T16:35:19.300Z,7.75
2018-08-19T16:37:48.227Z,8.20
2018-08-19T16:40:18.064Z,7.87
2018-08-19T16:42:47.094Z,8.43
2018-08-19T16:45:16.079Z,8.93
2018-08-19T16:47:45.846Z,8.13
2018-08-19T16:50:14.746Z,8.53
2018-08-19T16:52:43.583Z,7.80
2018-08-19T16:55:12.518Z,8.58
2018-08-19T16:57:41.433Z,8.50
2018-08-19T17:00:10.425Z,8.25
2018-08-19T17:02:39.328Z,8.18
2018-08-19T17:05:39.158Z,7.60
2018-08-19T17:08:08.119Z,8.25
2018-08-19T17:10:36.976Z,8.90
2018-08-19T17:13:05.813Z,7.95
2018-08-19T17:15:34.728Z,8.78
2018-08-19T17:18:03.695Z,8.48
2018-08-19T17:20:32.518Z,8.45
2018-08-19T17:23:01.318Z,8.10
2018-08-19T17:25:30.291Z,7.70
2018-08-19T17:28:05.194Z,8.13
2018-08-19T17:30:34.089Z,8.03
2018-08-19T17:33:09.472Z,7.60
2018-08-19T17:35:40.275Z,8.53
2018-08-19T17:38:09.374Z,8.10
2018-08-19T17:40:38.196Z,8.05
2018-08-19T17:43:07.116Z,7.97
2018-08-19T17:45:36.050Z,7.70
2018-08-19T17:48:05.194Z,8.50
2018-08-19T17:50:34.533Z,7.58
2018-08-19T17:53:03.467Z,8.23
2018-08-19T17:55:32.293Z,8.20
2018-08-19T17:58:01.394Z,8.50
2018-08-19T18:00:30.202Z,7.97
2018-08-19T18:02:59.344Z,8.05
2018-08-19T18:05:28.296Z,7.37
2018-08-19T18:07:57.306Z,7.92
2018-08-19T18:10:26.199Z,7.62
2018-08-19T18:12:55.074Z,7.35
2018-08-19T18:15:23.942Z,7.15
2018-08-19T18:17:59.108Z,7.20
2018-08-19T18:20:32.992Z,7.30
2018-08-19T18:23:02.192Z,7.37
2018-08-19T18:25:31.112Z,6.97
2018-08-19T18:28:04.326Z,6.70
2018-08-19T18:30:33.145Z,7.47
2018-08-19T18:33:04.779Z,7.10
2018-08-19T18:35:33.676Z,7.10
2018-08-19T18:38:02.467Z,6.93
2018-08-19T18:40:33.263Z,6.80
2018-08-19T18:43:03.050Z,7.50
2018-08-19T18:45:32.074Z,7.13
2018-08-19T18:48:01.980Z,6.57
2018-08-19T18:50:30.853Z,7.40
2018-08-19T18:52:59.735Z,7.33
2018-08-19T18:55:28.638Z,6.50
2018-08-19T18:57:57.904Z,6.87
2018-08-19T19:00:27.792Z,6.83
2018-08-19T19:02:57.914Z,6.53
2018-08-19T19:05:41.043Z,8.43
2018-08-19T19:08:14.053Z,7.07
2018-08-19T19:10:53.001Z,7.10
2018-08-19T19:13:23.041Z,7.50
2018-08-19T19:15:51.870Z,6.73
2018-08-19T19:18:20.714Z,7.07
2018-08-19T19:20:55.037Z,6.97
2018-08-19T19:23:28.271Z,7.43
2018-08-19T19:25:57.036Z,7.13
2018-08-19T19:28:25.936Z,7.10
2018-08-19T19:31:07.493Z,7.17
2018-08-19T19:33:37.087Z,6.63
2018-08-19T19:36:11.383Z,6.23
2018-08-19T19:38:52.003Z,6.73
2018-08-19T19:41:22.784Z,7.20
2018-08-19T19:43:51.714Z,7.20
2018-08-19T19:46:20.793Z,6.57
2018-08-19T19:48:49.964Z,6.80
2018-08-19T19:51:18.789Z,6.83
2018-08-19T19:53:48.538Z,6.77
2018-08-19T19:56:18.554Z,6.80
2018-08-19T19:58:48.493Z,6.87
2018-08-19T20:01:17.863Z,6.90
2018-08-19T20:03:52.763Z,7.30
2018-08-19T20:06:21.929Z,6.70
2018-08-19T20:08:50.765Z,6.87
2018-08-19T20:11:24.797Z,6.40
2018-08-19T20:13:54.196Z,6.87
2018-08-19T20:16:23.325Z,6.50
2018-08-19T20:18:52.178Z,7.07
2018-08-19T20:21:26.232Z,6.87
2018-08-19T20:23:56.748Z,6.80
2018-08-19T20:26:26.375Z,6.67
2018-08-19T20:28:56.645Z,6.73
2018-08-19T20:31:25.476Z,6.40
2018-08-19T20:33:54.363Z,6.60
2018-08-19T20:36:23.354Z,5.87
2018-08-19T20:38:52.085Z,6.17
2018-08-19T20:41:20.952Z,6.53
2018-08-19T20:43:49.899Z,6.20
2018-08-19T20:46:18.910Z,6.03
2018-08-19T20:48:48.474Z,6.37
2018-08-19T20:51:17.283Z,6.03
2018-08-19T20:53:46.204Z,6.50
2018-08-19T20:56:15.015Z,6.33
2018-08-19T20:58:43.844Z,5.97
2018-08-19T21:01:17.966Z,6.33
2018-08-19T21:03:47.230Z,6.10
2018-08-19T21:06:16.138Z,6.67
2018-08-19T21:08:45.067Z,6.20
2018-08-19T21:11:13.842Z,5.97
2018-08-19T21:13:42.862Z,6.27
2018-08-19T21:16:11.636Z,6.57
2018-08-19T21:18:40.435Z,6.33
2018-08-19T21:21:09.316Z,6.73
2018-08-19T21:23:38.220Z,6.97
2018-08-19T21:26:07.260Z,6.07
2018-08-19T21:28:36.059Z,6.77
2018-08-19T21:31:04.919Z,6.10
2018-08-19T21:33:33.719Z,6.80
2018-08-19T21:36:02.507Z,6.80
2018-08-19T21:38:31.305Z,6.37
2018-08-19T21:41:00.241Z,7.13
2018-08-19T21:43:30.665Z,6.43
2018-08-19T21:46:00.209Z,7.57
2018-08-19T21:48:29.083Z,7.53
2018-08-19T21:50:57.855Z,7.30
2018-08-19T21:53:26.644Z,7.60
2018-08-19T21:55:55.475Z,7.53
2018-08-19T21:58:24.338Z,7.53
2018-08-19T22:00:59.982Z,7.80
2018-08-19T22:03:34.074Z,7.53
2018-08-19T22:06:07.192Z,7.97
2018-08-19T22:08:36.004Z,7.60
2018-08-19T22:11:05.158Z,7.83
2018-08-19T22:13:33.962Z,7.53
2018-08-19T22:16:02.857Z,7.60
2018-08-19T22:18:31.756Z,8.00
2018-08-19T22:21:22.583Z,7.97
2018-08-19T22:23:55.167Z,7.20
2018-08-19T22:26:23.994Z,7.30
2018-08-19T22:29:10.620Z,7.77
2018-08-19T22:31:39.438Z,7.67
2018-08-19T22:34:08.270Z,7.30
2018-08-19T22:36:37.100Z,7.27
2018-08-19T22:39:09.145Z,7.77
2018-08-19T22:41:37.962Z,8.33
2018-08-19T22:44:06.788Z,7.27
2018-08-19T22:46:35.679Z,7.50
2018-08-19T22:49:04.615Z,7.67
2018-08-19T22:51:34.034Z,7.47
2018-08-19T22:54:02.827Z,7.50
2018-08-19T22:56:31.636Z,7.40
2018-08-19T22:59:00.581Z,6.73
2018-08-19T23:01:34.535Z,7.43
2018-08-19T23:04:03.898Z,8.00
2018-08-19T23:06:33.414Z,7.33
2018-08-19T23:09:02.834Z,7.97
2018-08-19T23:11:37.214Z,7.50
2018-08-19T23:14:17.505Z,7.07
2018-08-19T23:16:46.376Z,7.27
2018-08-19T23:19:15.188Z,7.90
2018-08-19T23:21:44.093Z,7.63
2018-08-19T23:24:12.846Z,7.37
2018-08-19T23:26:41.636Z,7.33
2018-08-19T23:29:10.613Z,6.80
2018-08-19T23:31:39.436Z,7.30
2018-08-19T23:34:08.287Z,7.57
2018-08-19T23:36:37.101Z,7.70
2018-08-19T23:39:07.612Z,7.33
2018-08-19T23:41:36.500Z,7.13
2018-08-19T23:44:05.348Z,7.40
2018-08-19T23:46:34.174Z,7.87
2018-08-19T23:49:02.964Z,7.17
2018-08-19T23:51:32.439Z,7.40
2018-08-19T23:54:02.406Z,7.60
2018-08-19T23:56:31.785Z,7.90
2018-08-19T23:59:01.063Z,8.07
